Terminal Aerodrome Forecast
Issued by NWS

Home | Current Version | Previous Version | Text Only | Print | Product List | Glossary On
Versions: 1 2 3 4 5 6 7 8 9 10 11 12 13 14 15 16 17 18 19 20 21
168
FTUS46 KSEW 130533
TAFHQM
TAF
KHQM 130533Z 1306/1406 18010KT 4SM -SHRA BR BKN015 OVC040
     FM131200 16008KT P6SM SCT015 BKN035 BKN050
     FM131800 16012KT P6SM -RA OVC035
     FM132200 16015G25KT 3SM -RA BR SCT006 OVC011
     FM140200 18012KT 3SM -RA OVC006=

USA.gov is the U.S. government's official web portal to all federal, state and local government web resources and services.